sensor_id;sensor_type;location;lat;lon;timestamp;pressure;altitude;pressure_sealevel;temperature;humidity
37066;BME280;22981;43.080;25.550;2022-12-29T00:00:29;100673.27;;;2.54;65.34
37066;BME280;22981;43.080;25.550;2022-12-29T00:02:56;100668.82;;;2.55;65.36
37066;BME280;22981;43.080;25.550;2022-12-29T00:05:24;100673.62;;;2.55;65.35
37066;BME280;22981;43.080;25.550;2022-12-29T00:07:51;100664.02;;;2.54;65.32
37066;BME280;22981;43.080;25.550;2022-12-29T00:10:19;100672.22;;;2.51;65.32
37066;BME280;22981;43.080;25.550;2022-12-29T00:12:46;100675.50;;;2.49;65.37
37066;BME280;22981;43.080;25.550;2022-12-29T00:15:32;100682.11;;;2.49;65.39
37066;BME280;22981;43.080;25.550;2022-12-29T00:18:05;100687.52;;;2.47;65.38
37066;BME280;22981;43.080;25.550;2022-12-29T00:20:34;100687.33;;;2.45;65.40
37066;BME280;22981;43.080;25.550;2022-12-29T00:23:20;100693.56;;;2.44;65.43
37066;BME280;22981;43.080;25.550;2022-12-29T00:26:11;100684.11;;;2.41;65.40
37066;BME280;22981;43.080;25.550;2022-12-29T00:28:56;100684.95;;;2.42;65.36
37066;BME280;22981;43.080;25.550;2022-12-29T00:31:41;100685.92;;;2.41;65.29
37066;BME280;22981;43.080;25.550;2022-12-29T00:34:26;100678.41;;;2.36;65.35
37066;BME280;22981;43.080;25.550;2022-12-29T00:37:11;100671.23;;;2.33;65.39
37066;BME280;22981;43.080;25.550;2022-12-29T00:39:39;100676.17;;;2.32;65.45
37066;BME280;22981;43.080;25.550;2022-12-29T00:42:24;100682.40;;;2.21;65.52
37066;BME280;22981;43.080;25.550;2022-12-29T00:45:10;100682.13;;;2.14;65.75
37066;BME280;22981;43.080;25.550;2022-12-29T00:47:37;100692.87;;;2.07;65.90
37066;BME280;22981;43.080;25.550;2022-12-29T00:50:05;100693.77;;;2.02;66.04
37066;BME280;22981;43.080;25.550;2022-12-29T00:52:33;100691.13;;;2.02;66.21
37066;BME280;22981;43.080;25.550;2022-12-29T00:55:00;100688.83;;;2.03;66.18
37066;BME280;22981;43.080;25.550;2022-12-29T00:57:28;100694.45;;;2.04;66.15
37066;BME280;22981;43.080;25.550;2022-12-29T00:59:55;100700.94;;;2.06;66.11
37066;BME280;22981;43.080;25.550;2022-12-29T01:02:23;100703.70;;;2.04;66.11
37066;BME280;22981;43.080;25.550;2022-12-29T01:04:50;100699.99;;;2.01;66.18
37066;BME280;22981;43.080;25.550;2022-12-29T01:07:18;100703.50;;;2.02;66.25
37066;BME280;22981;43.080;25.550;2022-12-29T01:09:45;100703.84;;;2.03;66.21
37066;BME280;22981;43.080;25.550;2022-12-29T01:12:32;100697.09;;;2.04;66.18
37066;BME280;22981;43.080;25.550;2022-12-29T01:15:13;100697.23;;;2.03;66.13
37066;BME280;22981;43.080;25.550;2022-12-29T01:17:41;100700.14;;;1.99;66.14
37066;BME280;22981;43.080;25.550;2022-12-29T01:20:09;100704.73;;;1.97;66.19
37066;BME280;22981;43.080;25.550;2022-12-29T01:22:37;100699.48;;;1.92;66.13
37066;BME280;22981;43.080;25.550;2022-12-29T01:25:05;100695.72;;;1.85;66.10
37066;BME280;22981;43.080;25.550;2022-12-29T01:27:33;100691.09;;;1.77;66.27
37066;BME280;22981;43.080;25.550;2022-12-29T01:30:00;100690.75;;;1.76;66.37
37066;BME280;22981;43.080;25.550;2022-12-29T01:32:28;100680.28;;;1.80;66.35
37066;BME280;22981;43.080;25.550;2022-12-29T01:34:55;100680.48;;;1.83;66.29
37066;BME280;22981;43.080;25.550;2022-12-29T01:37:23;100679.64;;;1.82;66.30
37066;BME280;22981;43.080;25.550;2022-12-29T01:39:50;100672.36;;;1.80;66.34
37066;BME280;22981;43.080;25.550;2022-12-29T01:42:22;100676.58;;;1.77;66.37
37066;BME280;22981;43.080;25.550;2022-12-29T01:44:55;100672.50;;;1.63;66.48
37066;BME280;22981;43.080;25.550;2022-12-29T01:48:01;100669.54;;;1.57;66.81
37066;BME280;22981;43.080;25.550;2022-12-29T01:50:32;100670.02;;;1.56;66.95
37066;BME280;22981;43.080;25.550;2022-12-29T01:53:00;100665.52;;;1.62;66.91
37066;BME280;22981;43.080;25.550;2022-12-29T01:55:30;100657.69;;;1.66;66.95
37066;BME280;22981;43.080;25.550;2022-12-29T01:58:01;100651.92;;;1.67;66.98
37066;BME280;22981;43.080;25.550;2022-12-29T02:00:29;100658.61;;;1.71;67.03
37066;BME280;22981;43.080;25.550;2022-12-29T02:02:56;100652.47;;;1.76;67.06
37066;BME280;22981;43.080;25.550;2022-12-29T02:05:36;100649.20;;;1.78;66.98
37066;BME280;22981;43.080;25.550;2022-12-29T02:08:03;100653.24;;;1.82;67.04
37066;BME280;22981;43.080;25.550;2022-12-29T02:10:32;100646.58;;;1.88;67.03
37066;BME280;22981;43.080;25.550;2022-12-29T02:13:01;100645.08;;;1.95;66.98
37066;BME280;22981;43.080;25.550;2022-12-29T02:29:45;100617.01;;;1.94;67.12
37066;BME280;22981;43.080;25.550;2022-12-29T02:31:59;100609.84;;;2.00;67.20
37066;BME280;22981;43.080;25.550;2022-12-29T02:34:48;100616.95;;;2.09;67.17
37066;BME280;22981;43.080;25.550;2022-12-29T02:42:49;100604.46;;;2.21;67.16
37066;BME280;22981;43.080;25.550;2022-12-29T02:48:20;100603.97;;;2.21;67.26
37066;BME280;22981;43.080;25.550;2022-12-29T02:51:23;100606.57;;;2.27;67.19
37066;BME280;22981;43.080;25.550;2022-12-29T02:53:45;100597.70;;;2.22;67.13
37066;BME280;22981;43.080;25.550;2022-12-29T02:56:30;100601.33;;;2.21;67.19
37066;BME280;22981;43.080;25.550;2022-12-29T02:58:58;100603.89;;;2.17;67.32
37066;BME280;22981;43.080;25.550;2022-12-29T03:09:33;100595.63;;;2.16;67.67
37066;BME280;22981;43.080;25.550;2022-12-29T03:12:22;100599.59;;;2.16;67.77
37066;BME280;22981;43.080;25.550;2022-12-29T03:17:51;100591.25;;;2.21;67.85
37066;BME280;22981;43.080;25.550;2022-12-29T03:20:20;100598.83;;;2.30;67.77
37066;BME280;22981;43.080;25.550;2022-12-29T03:22:48;100593.70;;;2.28;67.79
37066;BME280;22981;43.080;25.550;2022-12-29T03:25:26;100595.70;;;2.30;67.90
37066;BME280;22981;43.080;25.550;2022-12-29T03:28:01;100590.98;;;2.34;67.95
37066;BME280;22981;43.080;25.550;2022-12-29T03:30:31;100593.91;;;2.40;67.94
37066;BME280;22981;43.080;25.550;2022-12-29T03:33:03;100589.87;;;2.46;67.86
37066;BME280;22981;43.080;25.550;2022-12-29T03:35:33;100585.48;;;2.50;67.82
37066;BME280;22981;43.080;25.550;2022-12-29T03:40:47;100586.72;;;2.56;67.72
37066;BME280;22981;43.080;25.550;2022-12-29T03:43:15;100589.67;;;2.53;67.69
37066;BME280;22981;43.080;25.550;2022-12-29T03:45:43;100586.13;;;2.48;67.78
37066;BME280;22981;43.080;25.550;2022-12-29T03:48:11;100591.95;;;2.42;67.97
37066;BME280;22981;43.080;25.550;2022-12-29T03:50:39;100591.73;;;2.40;68.12
37066;BME280;22981;43.080;25.550;2022-12-29T03:53:06;100589.46;;;2.41;68.19
37066;BME280;22981;43.080;25.550;2022-12-29T03:55:34;100585.84;;;2.42;68.24
37066;BME280;22981;43.080;25.550;2022-12-29T03:58:01;100585.20;;;2.44;68.29
37066;BME280;22981;43.080;25.550;2022-12-29T04:00:29;100580.55;;;2.42;68.39
37066;BME280;22981;43.080;25.550;2022-12-29T04:02:56;100587.09;;;2.38;68.50
37066;BME280;22981;43.080;25.550;2022-12-29T04:05:24;100586.79;;;2.31;68.65
37066;BME280;22981;43.080;25.550;2022-12-29T04:07:52;100591.05;;;2.28;68.79
37066;BME280;22981;43.080;25.550;2022-12-29T04:10:19;100589.92;;;2.31;68.75
37066;BME280;22981;43.080;25.550;2022-12-29T04:12:47;100591.17;;;2.26;68.78
37066;BME280;22981;43.080;25.550;2022-12-29T04:15:14;100593.47;;;2.25;68.81
37066;BME280;22981;43.080;25.550;2022-12-29T04:17:42;100593.13;;;2.24;68.79
37066;BME280;22981;43.080;25.550;2022-12-29T04:20:10;100596.19;;;2.20;68.83
37066;BME280;22981;43.080;25.550;2022-12-29T04:22:59;100599.33;;;2.19;68.83
37066;BME280;22981;43.080;25.550;2022-12-29T04:25:27;100592.98;;;2.16;68.81
37066;BME280;22981;43.080;25.550;2022-12-29T04:27:55;100592.77;;;2.14;68.81
37066;BME280;22981;43.080;25.550;2022-12-29T04:30:22;100598.53;;;2.13;68.83
37066;BME280;22981;43.080;25.550;2022-12-29T04:32:50;100599.52;;;2.12;68.82
37066;BME280;22981;43.080;25.550;2022-12-29T04:35:17;100600.49;;;2.11;68.81
37066;BME280;22981;43.080;25.550;2022-12-29T04:37:45;100594.80;;;2.06;68.81
37066;BME280;22981;43.080;25.550;2022-12-29T04:40:13;100603.40;;;2.08;68.82
37066;BME280;22981;43.080;25.550;2022-12-29T04:42:40;100600.91;;;2.07;68.81
37066;BME280;22981;43.080;25.550;2022-12-29T04:45:08;100603.33;;;2.04;68.84
37066;BME280;22981;43.080;25.550;2022-12-29T04:47:36;100595.55;;;2.03;68.85
37066;BME280;22981;43.080;25.550;2022-12-29T04:50:04;100605.39;;;2.00;68.88
37066;BME280;22981;43.080;25.550;2022-12-29T04:52:32;100598.23;;;1.97;68.88
37066;BME280;22981;43.080;25.550;2022-12-29T04:54:59;100602.14;;;1.93;68.93
37066;BME280;22981;43.080;25.550;2022-12-29T04:57:27;100615.05;;;1.96;68.84
37066;BME280;22981;43.080;25.550;2022-12-29T04:59:54;100613.57;;;1.88;68.86
37066;BME280;22981;43.080;25.550;2022-12-29T05:02:22;100620.16;;;1.78;69.00
37066;BME280;22981;43.080;25.550;2022-12-29T05:04:50;100619.73;;;1.73;69.19
37066;BME280;22981;43.080;25.550;2022-12-29T05:07:18;100626.33;;;1.73;69.20
37066;BME280;22981;43.080;25.550;2022-12-29T05:09:45;100621.80;;;1.69;69.18
37066;BME280;22981;43.080;25.550;2022-12-29T05:12:13;100627.42;;;1.70;69.21
37066;BME280;22981;43.080;25.550;2022-12-29T05:14:41;100626.73;;;1.68;69.21
37066;BME280;22981;43.080;25.550;2022-12-29T05:20:29;100634.34;;;1.62;69.27
37066;BME280;22981;43.080;25.550;2022-12-29T05:22:57;100639.91;;;1.59;69.31
37066;BME280;22981;43.080;25.550;2022-12-29T05:25:24;100634.63;;;1.59;69.33
37066;BME280;22981;43.080;25.550;2022-12-29T05:27:52;100635.56;;;1.58;69.29
37066;BME280;22981;43.080;25.550;2022-12-29T05:30:19;100633.16;;;1.60;69.29
37066;BME280;22981;43.080;25.550;2022-12-29T05:32:47;100633.50;;;1.61;69.26
37066;BME280;22981;43.080;25.550;2022-12-29T05:35:15;100634.14;;;1.59;69.26
37066;BME280;22981;43.080;25.550;2022-12-29T05:37:42;100634.88;;;1.56;69.29
37066;BME280;22981;43.080;25.550;2022-12-29T05:40:10;100637.86;;;1.57;69.28
37066;BME280;22981;43.080;25.550;2022-12-29T05:42:38;100637.86;;;1.57;69.28
37066;BME280;22981;43.080;25.550;2022-12-29T05:45:06;100636.31;;;1.54;69.25
37066;BME280;22981;43.080;25.550;2022-12-29T05:47:34;100641.91;;;1.45;69.29
37066;BME280;22981;43.080;25.550;2022-12-29T05:50:02;100650.50;;;1.38;69.38
37066;BME280;22981;43.080;25.550;2022-12-29T05:52:44;100655.55;;;1.35;69.44
37066;BME280;22981;43.080;25.550;2022-12-29T05:55:12;100648.60;;;1.34;69.43
37066;BME280;22981;43.080;25.550;2022-12-29T05:57:40;100658.81;;;1.33;69.38
37066;BME280;22981;43.080;25.550;2022-12-29T06:00:08;100657.89;;;1.29;69.50
37066;BME280;22981;43.080;25.550;2022-12-29T06:02:35;100657.89;;;1.29;69.50
37066;BME280;22981;43.080;25.550;2022-12-29T06:05:03;100655.78;;;1.38;69.92
37066;BME280;22981;43.080;25.550;2022-12-29T06:07:31;100654.50;;;1.47;69.82
37066;BME280;22981;43.080;25.550;2022-12-29T06:09:59;100655.81;;;1.47;69.64
37066;BME280;22981;43.080;25.550;2022-12-29T06:12:26;100664.56;;;1.48;69.57
37066;BME280;22981;43.080;25.550;2022-12-29T06:14:54;100665.28;;;1.50;69.56
37066;BME280;22981;43.080;25.550;2022-12-29T06:17:21;100660.84;;;1.50;69.55
37066;BME280;22981;43.080;25.550;2022-12-29T06:19:49;100672.43;;;1.54;69.57
37066;BME280;22981;43.080;25.550;2022-12-29T06:22:16;100665.81;;;1.59;69.52
37066;BME280;22981;43.080;25.550;2022-12-29T06:24:44;100667.50;;;1.70;69.35
37066;BME280;22981;43.080;25.550;2022-12-29T06:27:11;100667.50;;;1.70;69.35
37066;BME280;22981;43.080;25.550;2022-12-29T06:29:40;100665.76;;;1.80;69.38
37066;BME280;22981;43.080;25.550;2022-12-29T06:32:09;100665.76;;;1.80;69.38
37066;BME280;22981;43.080;25.550;2022-12-29T06:34:37;100667.77;;;1.82;69.36
37066;BME280;22981;43.080;25.550;2022-12-29T06:37:04;100661.80;;;1.80;69.23
37066;BME280;22981;43.080;25.550;2022-12-29T06:39:32;100671.55;;;1.74;69.22
37066;BME280;22981;43.080;25.550;2022-12-29T06:41:59;100670.45;;;1.61;69.37
37066;BME280;22981;43.080;25.550;2022-12-29T06:44:27;100669.94;;;1.52;69.58
37066;BME280;22981;43.080;25.550;2022-12-29T06:46:54;100666.72;;;1.48;69.72
37066;BME280;22981;43.080;25.550;2022-12-29T06:49:23;100672.43;;;1.54;69.73
37066;BME280;22981;43.080;25.550;2022-12-29T06:51:51;100672.17;;;1.57;69.56
37066;BME280;22981;43.080;25.550;2022-12-29T06:54:18;100674.03;;;1.50;69.45
37066;BME280;22981;43.080;25.550;2022-12-29T06:56:46;100670.40;;;1.36;69.71
37066;BME280;22981;43.080;25.550;2022-12-29T06:59:13;100670.40;;;1.36;69.71
37066;BME280;22981;43.080;25.550;2022-12-29T07:01:41;100679.56;;;1.47;69.72
37066;BME280;22981;43.080;25.550;2022-12-29T07:04:08;100676.77;;;1.80;69.28
37066;BME280;22981;43.080;25.550;2022-12-29T07:06:36;100676.77;;;1.80;69.28
37066;BME280;22981;43.080;25.550;2022-12-29T07:09:04;100681.73;;;2.04;68.95
37066;BME280;22981;43.080;25.550;2022-12-29T07:11:31;100676.36;;;2.24;68.57
37066;BME280;22981;43.080;25.550;2022-12-29T07:13:59;100682.72;;;2.37;68.29
37066;BME280;22981;43.080;25.550;2022-12-29T07:16:27;100678.83;;;2.51;68.12
37066;BME280;22981;43.080;25.550;2022-12-29T07:18:56;100677.80;;;2.58;68.00
37066;BME280;22981;43.080;25.550;2022-12-29T07:21:25;100683.43;;;2.68;67.90
37066;BME280;22981;43.080;25.550;2022-12-29T07:23:54;100676.00;;;2.87;67.78
37066;BME280;22981;43.080;25.550;2022-12-29T07:26:22;100682.52;;;3.03;67.53
37066;BME280;22981;43.080;25.550;2022-12-29T07:28:50;100681.45;;;3.19;67.38
37066;BME280;22981;43.080;25.550;2022-12-29T07:31:20;100676.07;;;3.34;67.21
37066;BME280;22981;43.080;25.550;2022-12-29T07:33:49;100673.57;;;3.46;66.92
37066;BME280;22981;43.080;25.550;2022-12-29T07:36:16;100683.94;;;3.54;66.83
37066;BME280;22981;43.080;25.550;2022-12-29T07:38:44;100674.69;;;3.67;66.68
37066;BME280;22981;43.080;25.550;2022-12-29T07:41:12;100677.66;;;3.78;66.50
37066;BME280;22981;43.080;25.550;2022-12-29T07:43:39;100680.98;;;3.94;66.28
37066;BME280;22981;43.080;25.550;2022-12-29T07:46:07;100682.56;;;4.00;66.19
37066;BME280;22981;43.080;25.550;2022-12-29T07:48:36;100683.05;;;4.14;66.18
37066;BME280;22981;43.080;25.550;2022-12-29T07:51:03;100683.73;;;4.30;65.97
37066;BME280;22981;43.080;25.550;2022-12-29T07:53:31;100682.83;;;4.39;65.77
37066;BME280;22981;43.080;25.550;2022-12-29T07:55:58;100685.62;;;4.51;65.57
37066;BME280;22981;43.080;25.550;2022-12-29T07:58:26;100686.86;;;4.61;65.44
37066;BME280;22981;43.080;25.550;2022-12-29T08:00:55;100689.27;;;4.68;65.28
37066;BME280;22981;43.080;25.550;2022-12-29T08:03:23;100688.60;;;4.70;65.10
37066;BME280;22981;43.080;25.550;2022-12-29T08:05:52;100691.20;;;4.84;65.21
37066;BME280;22981;43.080;25.550;2022-12-29T08:08:20;100685.68;;;4.95;64.88
37066;BME280;22981;43.080;25.550;2022-12-29T08:10:48;100681.53;;;5.14;65.02
37066;BME280;22981;43.080;25.550;2022-12-29T08:13:15;100676.04;;;5.38;64.57
37066;BME280;22981;43.080;25.550;2022-12-29T08:15:43;100682.00;;;5.62;64.32
37066;BME280;22981;43.080;25.550;2022-12-29T08:18:10;100681.30;;;5.90;64.09
37066;BME280;22981;43.080;25.550;2022-12-29T08:20:38;100676.89;;;6.02;63.52
37066;BME280;22981;43.080;25.550;2022-12-29T08:23:05;100675.45;;;6.16;63.27
37066;BME280;22981;43.080;25.550;2022-12-29T08:25:33;100672.52;;;6.36;63.04
37066;BME280;22981;43.080;25.550;2022-12-29T08:28:00;100673.06;;;6.68;62.63
37066;BME280;22981;43.080;25.550;2022-12-29T08:30:28;100664.95;;;6.86;62.05
37066;BME280;22981;43.080;25.550;2022-12-29T08:32:56;100669.92;;;6.97;61.83
37066;BME280;22981;43.080;25.550;2022-12-29T08:35:23;100666.93;;;7.20;61.64
37066;BME280;22981;43.080;25.550;2022-12-29T08:37:51;100663.22;;;7.50;61.28
37066;BME280;22981;43.080;25.550;2022-12-29T08:40:18;100657.46;;;7.77;60.49
37066;BME280;22981;43.080;25.550;2022-12-29T08:42:46;100652.58;;;7.93;59.64
37066;BME280;22981;43.080;25.550;2022-12-29T08:45:14;100651.81;;;8.12;59.54
37066;BME280;22981;43.080;25.550;2022-12-29T08:47:41;100653.04;;;8.32;58.98
37066;BME280;22981;43.080;25.550;2022-12-29T08:50:09;100652.67;;;8.39;58.46
37066;BME280;22981;43.080;25.550;2022-12-29T08:52:36;100651.53;;;8.61;58.53
37066;BME280;22981;43.080;25.550;2022-12-29T08:55:04;100641.03;;;8.82;57.71
37066;BME280;22981;43.080;25.550;2022-12-29T08:57:32;100640.61;;;8.93;57.85
37066;BME280;22981;43.080;25.550;2022-12-29T08:59:59;100639.77;;;9.12;57.45
37066;BME280;22981;43.080;25.550;2022-12-29T09:02:27;100632.30;;;9.26;57.38
37066;BME280;22981;43.080;25.550;2022-12-29T09:04:55;100635.55;;;9.66;57.21
37066;BME280;22981;43.080;25.550;2022-12-29T09:07:24;100621.27;;;10.10;56.48
37066;BME280;22981;43.080;25.550;2022-12-29T09:09:51;100617.86;;;10.41;56.10
37066;BME280;22981;43.080;25.550;2022-12-29T09:12:19;100615.62;;;10.77;55.51
37066;BME280;22981;43.080;25.550;2022-12-29T09:14:47;100609.06;;;11.08;55.24
37066;BME280;22981;43.080;25.550;2022-12-29T09:17:14;100607.48;;;11.31;54.64
37066;BME280;22981;43.080;25.550;2022-12-29T09:20:00;100603.64;;;11.29;54.00
37066;BME280;22981;43.080;25.550;2022-12-29T09:22:27;100604.00;;;11.19;54.28
37066;BME280;22981;43.080;25.550;2022-12-29T09:24:55;100598.95;;;11.38;54.27
37066;BME280;22981;43.080;25.550;2022-12-29T09:27:23;100594.68;;;11.67;54.05
37066;BME280;22981;43.080;25.550;2022-12-29T09:29:50;100594.59;;;11.89;53.39
37066;BME280;22981;43.080;25.550;2022-12-29T09:32:18;100588.11;;;11.94;52.84
37066;BME280;22981;43.080;25.550;2022-12-29T09:34:45;100583.61;;;12.01;52.54
37066;BME280;22981;43.080;25.550;2022-12-29T09:37:13;100577.84;;;12.04;52.23
37066;BME280;22981;43.080;25.550;2022-12-29T09:39:40;100577.42;;;12.07;52.24
37066;BME280;22981;43.080;25.550;2022-12-29T09:42:34;100580.56;;;12.17;51.84
37066;BME280;22981;43.080;25.550;2022-12-29T09:45:14;100572.30;;;12.19;51.84
37066;BME280;22981;43.080;25.550;2022-12-29T09:47:43;100566.50;;;12.15;51.75
37066;BME280;22981;43.080;25.550;2022-12-29T09:50:29;100557.45;;;12.36;51.51
37066;BME280;22981;43.080;25.550;2022-12-29T09:53:07;100553.86;;;12.53;51.14
37066;BME280;22981;43.080;25.550;2022-12-29T09:55:52;100545.27;;;12.80;50.78
37066;BME280;22981;43.080;25.550;2022-12-29T10:01:04;100530.37;;;13.04;50.08
37066;BME280;22981;43.080;25.550;2022-12-29T10:03:46;100525.63;;;12.99;49.63
37066;BME280;22981;43.080;25.550;2022-12-29T10:09:17;100523.76;;;13.00;48.90
37066;BME280;22981;43.080;25.550;2022-12-29T10:11:56;100522.41;;;13.07;49.22
37066;BME280;22981;43.080;25.550;2022-12-29T10:14:46;100519.28;;;13.16;48.86
37066;BME280;22981;43.080;25.550;2022-12-29T10:22:54;100510.27;;;13.33;48.42
37066;BME280;22981;43.080;25.550;2022-12-29T10:25:22;100506.25;;;13.56;48.15
37066;BME280;22981;43.080;25.550;2022-12-29T10:27:53;100506.94;;;13.67;47.42
37066;BME280;22981;43.080;25.550;2022-12-29T10:30:21;100502.38;;;13.83;47.02
37066;BME280;22981;43.080;25.550;2022-12-29T10:32:54;100501.78;;;13.81;46.99
37066;BME280;22981;43.080;25.550;2022-12-29T10:35:24;100499.26;;;13.86;47.00
37066;BME280;22981;43.080;25.550;2022-12-29T10:41:12;100490.64;;;14.09;46.67
37066;BME280;22981;43.080;25.550;2022-12-29T10:43:51;100491.03;;;13.97;46.59
37066;BME280;22981;43.080;25.550;2022-12-29T10:46:27;100485.28;;;13.87;46.61
37066;BME280;22981;43.080;25.550;2022-12-29T10:48:50;100483.34;;;13.85;46.38
37066;BME280;22981;43.080;25.550;2022-12-29T10:51:25;100484.68;;;13.85;46.51
37066;BME280;22981;43.080;25.550;2022-12-29T10:53:59;100482.20;;;13.99;46.46
37066;BME280;22981;43.080;25.550;2022-12-29T10:56:41;100482.90;;;14.19;46.40
37066;BME280;22981;43.080;25.550;2022-12-29T11:04:35;100464.94;;;14.63;45.34
37066;BME280;22981;43.080;25.550;2022-12-29T11:07:03;100464.41;;;14.55;45.38
37066;BME280;22981;43.080;25.550;2022-12-29T11:09:34;100466.89;;;14.56;45.06
37066;BME280;22981;43.080;25.550;2022-12-29T11:12:21;100459.91;;;14.48;45.01
37066;BME280;22981;43.080;25.550;2022-12-29T11:17:53;100455.34;;;14.49;45.28
37066;BME280;22981;43.080;25.550;2022-12-29T11:20:35;100453.64;;;14.73;45.02
37066;BME280;22981;43.080;25.550;2022-12-29T11:23:21;100451.95;;;14.88;44.88
37066;BME280;22981;43.080;25.550;2022-12-29T11:25:35;100448.67;;;14.95;44.60
37066;BME280;22981;43.080;25.550;2022-12-29T11:28:17;100447.91;;;15.06;44.26
37066;BME280;22981;43.080;25.550;2022-12-29T11:30:42;100440.87;;;15.05;43.78
37066;BME280;22981;43.080;25.550;2022-12-29T11:33:10;100441.98;;;14.88;44.11
37066;BME280;22981;43.080;25.550;2022-12-29T11:35:42;100438.38;;;14.76;44.24
37066;BME280;22981;43.080;25.550;2022-12-29T11:38:21;100438.77;;;14.70;44.23
37066;BME280;22981;43.080;25.550;2022-12-29T11:40:49;100433.90;;;14.70;44.31
37066;BME280;22981;43.080;25.550;2022-12-29T11:43:27;100431.93;;;14.68;44.35
37066;BME280;22981;43.080;25.550;2022-12-29T11:45:53;100432.27;;;14.78;44.17
37066;BME280;22981;43.080;25.550;2022-12-29T11:48:22;100430.77;;;14.91;43.97
37066;BME280;22981;43.080;25.550;2022-12-29T11:50:57;100421.61;;;15.11;43.93
37066;BME280;22981;43.080;25.550;2022-12-29T11:56:10;100424.29;;;15.38;43.23
37066;BME280;22981;43.080;25.550;2022-12-29T11:58:39;100421.12;;;15.50;43.23
37066;BME280;22981;43.080;25.550;2022-12-29T12:01:21;100416.56;;;15.63;42.92
37066;BME280;22981;43.080;25.550;2022-12-29T12:03:53;100414.02;;;15.77;42.85
37066;BME280;22981;43.080;25.550;2022-12-29T12:06:20;100413.77;;;15.99;42.83
37066;BME280;22981;43.080;25.550;2022-12-29T12:08:57;100399.78;;;16.23;42.10
37066;BME280;22981;43.080;25.550;2022-12-29T12:11:38;100399.89;;;16.28;42.50
37066;BME280;22981;43.080;25.550;2022-12-29T12:14:02;100394.03;;;16.32;42.81
37066;BME280;22981;43.080;25.550;2022-12-29T12:16:33;100394.66;;;16.48;42.80
37066;BME280;22981;43.080;25.550;2022-12-29T12:19:03;100390.49;;;16.55;42.81
37066;BME280;22981;43.080;25.550;2022-12-29T12:21:34;100384.94;;;16.61;42.58
37066;BME280;22981;43.080;25.550;2022-12-29T12:26:49;100380.49;;;16.67;42.64
37066;BME280;22981;43.080;25.550;2022-12-29T12:29:24;100384.02;;;16.67;42.43
37066;BME280;22981;43.080;25.550;2022-12-29T12:31:59;100381.06;;;16.69;42.62
37066;BME280;22981;43.080;25.550;2022-12-29T12:53:43;100384.91;;;16.47;43.05
37066;BME280;22981;43.080;25.550;2022-12-29T12:56:26;100380.14;;;16.51;42.97
37066;BME280;22981;43.080;25.550;2022-12-29T13:01:53;100381.03;;;16.55;42.97
37066;BME280;22981;43.080;25.550;2022-12-29T13:07:25;100386.19;;;16.56;42.93
37066;BME280;22981;43.080;25.550;2022-12-29T13:09:58;100386.26;;;16.59;42.96
37066;BME280;22981;43.080;25.550;2022-12-29T13:20:39;100386.72;;;16.44;43.63
37066;BME280;22981;43.080;25.550;2022-12-29T13:26:02;100393.53;;;16.23;44.10
37066;BME280;22981;43.080;25.550;2022-12-29T13:28:53;100392.06;;;16.18;44.21
37066;BME280;22981;43.080;25.550;2022-12-29T13:31:27;100400.36;;;16.25;43.96
37066;BME280;22981;43.080;25.550;2022-12-29T13:36:43;100400.94;;;16.16;43.84
37066;BME280;22981;43.080;25.550;2022-12-29T13:39:19;100406.23;;;16.11;44.02
37066;BME280;22981;43.080;25.550;2022-12-29T13:41:55;100405.70;;;16.11;43.92
37066;BME280;22981;43.080;25.550;2022-12-29T13:44:28;100398.66;;;16.10;43.89
37066;BME280;22981;43.080;25.550;2022-12-29T13:46:56;100397.16;;;15.93;43.96
37066;BME280;22981;43.080;25.550;2022-12-29T13:49:24;100402.38;;;15.37;44.70
37066;BME280;22981;43.080;25.550;2022-12-29T13:51:58;100406.50;;;14.91;45.47
37066;BME280;22981;43.080;25.550;2022-12-29T13:54:42;100397.56;;;14.54;46.03
37066;BME280;22981;43.080;25.550;2022-12-29T13:57:12;100406.67;;;14.19;46.59
37066;BME280;22981;43.080;25.550;2022-12-29T14:00:11;100414.59;;;13.82;47.28
37066;BME280;22981;43.080;25.550;2022-12-29T14:08:00;100425.54;;;12.97;49.09
37066;BME280;22981;43.080;25.550;2022-12-29T14:10:35;100422.93;;;12.71;49.60
37066;BME280;22981;43.080;25.550;2022-12-29T14:13:15;100428.35;;;12.44;50.13
37066;BME280;22981;43.080;25.550;2022-12-29T14:15:45;100429.91;;;12.23;50.64
37066;BME280;22981;43.080;25.550;2022-12-29T14:18:22;100435.17;;;12.00;51.01
37066;BME280;22981;43.080;25.550;2022-12-29T14:21:02;100434.06;;;11.82;51.37
37066;BME280;22981;43.080;25.550;2022-12-29T14:23:37;100441.79;;;11.61;51.80
37066;BME280;22981;43.080;25.550;2022-12-29T14:28:50;100442.20;;;11.34;52.33
37066;BME280;22981;43.080;25.550;2022-12-29T14:31:32;100441.03;;;11.25;52.41
37066;BME280;22981;43.080;25.550;2022-12-29T14:39:40;100440.83;;;11.03;52.83
37066;BME280;22981;43.080;25.550;2022-12-29T14:47:39;100451.64;;;10.82;53.17
37066;BME280;22981;43.080;25.550;2022-12-29T14:52:58;100454.19;;;10.79;53.22
37066;BME280;22981;43.080;25.550;2022-12-29T14:55:44;100458.31;;;10.75;53.25
37066;BME280;22981;43.080;25.550;2022-12-29T14:58:35;100453.03;;;10.71;53.23
37066;BME280;22981;43.080;25.550;2022-12-29T15:01:01;100450.73;;;10.68;53.28
37066;BME280;22981;43.080;25.550;2022-12-29T15:03:44;100458.33;;;10.64;53.41
37066;BME280;22981;43.080;25.550;2022-12-29T15:06:10;100459.05;;;10.62;53.47
37066;BME280;22981;43.080;25.550;2022-12-29T15:08:54;100459.60;;;10.58;53.50
37066;BME280;22981;43.080;25.550;2022-12-29T15:11:24;100460.33;;;10.56;53.52
37066;BME280;22981;43.080;25.550;2022-12-29T15:13:51;100453.19;;;10.52;53.56